Time;durP1;ratioP1;P1;durP2;ratioP2;P2;SDS_P1;SDS_P2;PMS_P1;PMS_P2;Temp;Humidity;BMP_temperature;BMP_pressure;BME280_temperature;BME280_humidity;BME280_pressure;Samples;Min_cycle;Max_cycle;Signal;HPM_P1;HPM_P2
2024/01/05 00:03:34;;;;;;;5.03;2.20;;;;;;;;;;10017278;29;20037;-77
2024/01/05 00:08:35;;;;;;;7.57;2.83;;;;;;;;;;10006980;29;20120;-79
2024/01/05 00:13:36;;;;;;;6.07;3.07;;;;;;;;;;10014126;29;20133;-77
2024/01/05 00:18:37;;;;;;;4.23;2.23;;;;;;;;;;10016196;29;20402;-80
2024/01/05 00:23:39;;;;;;;4.53;2.50;;;;;;;;;;10021127;29;20936;-81
2024/01/05 00:28:40;;;;;;;3.07;1.90;;;;;;;;;;10014797;29;20034;-80
2024/01/05 00:33:41;;;;;;;4.57;2.50;;;;;;;;;;10023746;29;20127;-79
2024/01/05 00:38:47;;;;;;;4.20;2.10;;;;;;;;;;10017168;29;20570;-79
2024/01/05 00:43:48;;;;;;;2.70;1.92;;;;;;;;;;10015665;29;20042;-80
2024/01/05 00:48:57;;;;;;;6.73;3.57;;;;;;;;;;10029644;29;20549;-78
2024/01/05 00:54:04;;;;;;;2.33;1.60;;;;;;;;;;10017835;29;20605;-77
2024/01/05 00:59:06;;;;;;;3.03;2.20;;;;;;;;;;10015396;29;20038;-79
2024/01/05 01:04:07;;;;;;;3.47;2.00;;;;;;;;;;10024418;29;20510;-80
2024/01/05 01:09:08;;;;;;;3.00;1.70;;;;;;;;;;10020521;29;20040;-79
2024/01/05 01:14:09;;;;;;;3.17;1.80;;;;;;;;;;10017088;29;20045;-79
2024/01/05 01:19:10;;;;;;;4.10;2.10;;;;;;;;;;10022282;29;20034;-79
2024/01/05 01:24:11;;;;;;;3.57;2.07;;;;;;;;;;10027279;29;20429;-80
2024/01/05 01:29:12;;;;;;;5.13;2.40;;;;;;;;;;10024228;29;20034;-78
2024/01/05 01:34:13;;;;;;;2.90;1.97;;;;;;;;;;10019639;29;20048;-80
2024/01/05 01:39:15;;;;;;;2.40;1.80;;;;;;;;;;10017520;29;20049;-77
2024/01/05 01:44:16;;;;;;;2.93;2.20;;;;;;;;;;10014048;29;20098;-78
2024/01/05 01:49:17;;;;;;;3.53;1.60;;;;;;;;;;10018847;29;20090;-79
2024/01/05 01:54:18;;;;;;;4.00;2.77;;;;;;;;;;10013537;29;20046;-79
2024/01/05 01:59:19;;;;;;;4.47;2.27;;;;;;;;;;10014544;29;20034;-79
2024/01/05 02:04:23;;;;;;;3.97;2.10;;;;;;;;;;10019599;29;20783;-78
2024/01/05 02:09:24;;;;;;;3.67;2.00;;;;;;;;;;10027211;29;20375;-79
2024/01/05 02:14:25;;;;;;;3.87;2.37;;;;;;;;;;10012125;29;20560;-79
2024/01/05 02:19:26;;;;;;;2.93;2.20;;;;;;;;;;10021443;29;20057;-78
2024/01/05 02:24:27;;;;;;;3.03;1.97;;;;;;;;;;10012827;29;20057;-78
2024/01/05 02:29:28;;;;;;;3.60;2.40;;;;;;;;;;10013448;29;20483;-79
2024/01/05 02:34:35;;;;;;;2.50;1.80;;;;;;;;;;10025672;29;20104;-78
2024/01/05 02:39:36;;;;;;;3.00;2.03;;;;;;;;;;10019757;29;20065;-78
2024/01/05 02:44:37;;;;;;;3.73;2.10;;;;;;;;;;10024421;29;20045;-79
2024/01/05 02:49:38;;;;;;;4.70;2.40;;;;;;;;;;10020872;29;20037;-78
2024/01/05 02:54:40;;;;;;;3.23;2.23;;;;;;;;;;10016979;29;20053;-79
2024/01/05 02:59:41;;;;;;;5.63;3.00;;;;;;;;;;10017123;29;20034;-79
2024/01/05 03:04:45;;;;;;;4.87;2.43;;;;;;;;;;10013424;29;20137;-78
2024/01/05 03:09:46;;;;;;;10.40;5.50;;;;;;;;;;10034501;29;20048;-78
2024/01/05 03:14:47;;;;;;;12.43;6.00;;;;;;;;;;10016520;29;20049;-80
2024/01/05 03:19:48;;;;;;;19.23;7.70;;;;;;;;;;10021534;29;20062;-78
2024/01/05 03:24:49;;;;;;;6.00;3.00;;;;;;;;;;10021567;29;20127;-77
2024/01/05 03:29:50;;;;;;;4.30;2.37;;;;;;;;;;10012761;29;20040;-80
2024/01/05 03:34:51;;;;;;;4.20;2.50;;;;;;;;;;10013177;29;20045;-79
2024/01/05 03:39:52;;;;;;;3.13;2.37;;;;;;;;;;10015605;29;20124;-80
2024/01/05 03:44:53;;;;;;;3.10;2.57;;;;;;;;;;10015327;29;20041;-80
2024/01/05 03:50:02;;;;;;;4.37;3.30;;;;;;;;;;10017671;29;20038;-78
2024/01/05 03:55:04;;;;;;;4.47;2.70;;;;;;;;;;10047363;24;20121;-80
2024/01/05 04:00:05;;;;;;;4.00;2.70;;;;;;;;;;10047808;29;20068;-78
2024/01/05 04:05:06;;;;;;;6.13;3.27;;;;;;;;;;10055534;29;20672;-79
2024/01/05 04:10:08;;;;;;;9.53;4.83;;;;;;;;;;10056310;29;20033;-81
2024/01/05 04:15:09;;;;;;;10.77;5.60;;;;;;;;;;10054509;29;20056;-79
2024/01/05 04:20:11;;;;;;;9.93;5.70;;;;;;;;;;10055187;29;20037;-81
2024/01/05 04:25:12;;;;;;;6.67;4.37;;;;;;;;;;10053601;29;20398;-81
2024/01/05 04:30:13;;;;;;;6.23;3.53;;;;;;;;;;10052784;29;20041;-80
2024/01/05 04:35:14;;;;;;;6.80;4.07;;;;;;;;;;10015466;29;20534;-82
2024/01/05 04:40:15;;;;;;;7.10;4.23;;;;;;;;;;10021329;29;20037;-82
2024/01/05 04:45:16;;;;;;;6.70;3.47;;;;;;;;;;10025362;29;20044;-79
2024/01/05 04:50:17;;;;;;;11.50;5.00;;;;;;;;;;10015292;29;20479;-83
2024/01/05 04:55:20;;;;;;;10.07;5.20;;;;;;;;;;10019345;29;20058;-79
2024/01/05 05:00:21;;;;;;;6.37;3.40;;;;;;;;;;10011269;29;20431;-80
2024/01/05 05:05:22;;;;;;;6.77;3.87;;;;;;;;;;10016178;29;20548;-80
2024/01/05 05:10:23;;;;;;;5.43;3.47;;;;;;;;;;10009292;29;20049;-82
2024/01/05 05:15:31;;;;;;;9.07;4.97;;;;;;;;;;10086958;24;20256;-80
2024/01/05 05:20:32;;;;;;;8.77;5.10;;;;;;;;;;10123314;29;20067;-79
2024/01/05 05:25:33;;;;;;;8.10;4.27;;;;;;;;;;10127450;29;20058;-79
2024/01/05 05:30:34;;;;;;;8.83;3.67;;;;;;;;;;10128978;29;20108;-80
2024/01/05 05:35:35;;;;;;;13.77;6.03;;;;;;;;;;10128366;29;20464;-81
2024/01/05 05:40:36;;;;;;;12.57;5.47;;;;;;;;;;10128984;29;20037;-79
2024/01/05 05:45:38;;;;;;;10.77;5.00;;;;;;;;;;10128171;29;20092;-80
2024/01/05 05:50:39;;;;;;;10.90;6.10;;;;;;;;;;10116478;29;20036;-81
2024/01/05 05:55:40;;;;;;;13.23;7.00;;;;;;;;;;10117711;29;20052;-81
2024/01/05 06:00:41;;;;;;;10.90;5.70;;;;;;;;;;10126729;29;20037;-79
2024/01/05 06:05:42;;;;;;;27.90;11.60;;;;;;;;;;10127794;29;20397;-81
2024/01/05 06:10:43;;;;;;;40.43;16.03;;;;;;;;;;10128165;29;20393;-80
2024/01/05 06:15:44;;;;;;;59.63;22.50;;;;;;;;;;10110969;29;20057;-80
2024/01/05 06:20:45;;;;;;;52.63;24.13;;;;;;;;;;10120389;29;20376;-79
2024/01/05 06:25:46;;;;;;;21.30;9.10;;;;;;;;;;10128529;29;20036;-80
2024/01/05 06:30:47;;;;;;;16.33;6.57;;;;;;;;;;10126374;29;20037;-80
2024/01/05 06:35:48;;;;;;;15.27;7.13;;;;;;;;;;10115289;29;20028;-80
2024/01/05 06:40:56;;;;;;;15.40;7.30;;;;;;;;;;10114819;29;20053;-79
2024/01/05 06:45:57;;;;;;;27.83;12.13;;;;;;;;;;10097835;29;20041;-81
2024/01/05 06:50:59;;;;;;;20.63;10.33;;;;;;;;;;10126044;29;20071;-79
2024/01/05 06:56:08;;;;;;;16.20;7.67;;;;;;;;;;10126434;29;20072;-79
2024/01/05 07:01:09;;;;;;;13.30;7.20;;;;;;;;;;10164990;29;20084;-79
2024/01/05 07:06:11;;;;;;;14.53;7.30;;;;;;;;;;10163589;29;20046;-82
2024/01/05 07:11:22;;;;;;;15.07;7.17;;;;;;;;;;10148310;29;20394;-81
2024/01/05 07:16:29;;;;;;;14.83;6.60;;;;;;;;;;10164247;29;20129;-81
2024/01/05 07:21:30;;;;;;;37.37;18.43;;;;;;;;;;10164707;29;20067;-79
2024/01/05 07:26:31;;;;;;;34.67;16.50;;;;;;;;;;10150966;29;20054;-79
2024/01/05 07:31:32;;;;;;;22.93;9.87;;;;;;;;;;10152033;29;20028;-79
2024/01/05 07:36:33;;;;;;;18.73;9.53;;;;;;;;;;10164084;29;20785;-81
2024/01/05 07:41:34;;;;;;;18.77;8.70;;;;;;;;;;10163299;29;20082;-81
2024/01/05 07:46:45;;;;;;;24.60;14.63;;;;;;;;;;10159490;29;20547;-81
2024/01/05 07:51:46;;;;;;;37.93;22.03;;;;;;;;;;10158983;29;20032;-81
2024/01/05 07:56:47;;;;;;;29.43;16.20;;;;;;;;;;10163630;29;20044;-81
2024/01/05 08:01:51;;;;;;;38.23;16.10;;;;;;;;;;10164152;29;20036;-81
2024/01/05 08:06:52;;;;;;;16.07;9.13;;;;;;;;;;10115076;29;20032;-79
2024/01/05 08:11:53;;;;;;;50.97;24.20;;;;;;;;;;10121212;29;20096;-81
2024/01/05 08:16:54;;;;;;;19.67;9.87;;;;;;;;;;10149702;29;20069;-83
2024/01/05 08:21:55;;;;;;;26.97;12.37;;;;;;;;;;10126566;29;20040;-81
2024/01/05 08:26:57;;;;;;;16.63;9.53;;;;;;;;;;10163890;29;20062;-80
2024/01/05 08:31:59;;;;;;;13.87;7.27;;;;;;;;;;10163701;29;20020;-80
2024/01/05 08:37:00;;;;;;;47.40;19.87;;;;;;;;;;10149897;29;20043;-81
2024/01/05 08:42:01;;;;;;;67.20;26.80;;;;;;;;;;10118702;29;20488;-79
2024/01/05 08:47:02;;;;;;;29.07;13.13;;;;;;;;;;10142526;29;20028;-80
2024/01/05 08:52:04;;;;;;;20.03;10.63;;;;;;;;;;10149903;29;20036;-79
2024/01/05 08:57:07;;;;;;;32.90;14.57;;;;;;;;;;10169069;29;20044;-80
2024/01/05 09:02:08;;;;;;;29.17;13.73;;;;;;;;;;10156214;29;20164;-79
2024/01/05 09:07:09;;;;;;;28.50;14.17;;;;;;;;;;10147210;29;20071;-79
2024/01/05 09:12:10;;;;;;;24.40;12.50;;;;;;;;;;10138485;29;20033;-80
2024/01/05 09:17:12;;;;;;;29.60;12.00;;;;;;;;;;10127305;29;20060;-81
2024/01/05 09:22:13;;;;;;;25.40;10.50;;;;;;;;;;10139408;29;20036;-81
2024/01/05 09:27:15;;;;;;;25.50;10.80;;;;;;;;;;10126739;29;20036;-80
2024/01/05 09:32:16;;;;;;;22.67;11.33;;;;;;;;;;10123496;29;20186;-80
2024/01/05 09:37:17;;;;;;;23.87;10.53;;;;;;;;;;10125164;29;20107;-80
2024/01/05 09:42:18;;;;;;;26.40;12.10;;;;;;;;;;10129936;29;20069;-80
2024/01/05 09:47:19;;;;;;;36.37;14.00;;;;;;;;;;10129010;29;20059;-79
2024/01/05 09:52:21;;;;;;;32.50;17.90;;;;;;;;;;10122952;29;20039;-79
2024/01/05 09:57:23;;;;;;;30.70;13.93;;;;;;;;;;10127664;29;20036;-80
2024/01/05 10:02:30;;;;;;;48.90;21.00;;;;;;;;;;10118353;29;20069;-81
2024/01/05 10:07:32;;;;;;;50.63;22.07;;;;;;;;;;10128611;29;20020;-81
2024/01/05 10:12:33;;;;;;;77.53;33.53;;;;;;;;;;10127310;29;20025;-81
2024/01/05 10:17:41;;;;;;;39.97;20.70;;;;;;;;;;10125863;29;20104;-78
2024/01/05 10:22:46;;;;;;;32.63;15.93;;;;;;;;;;10120373;29;20088;-79
2024/01/05 10:27:56;;;;;;;37.10;15.40;;;;;;;;;;10126260;29;20769;-80
2024/01/05 10:33:05;;;;;;;30.57;13.90;;;;;;;;;;10117547;29;20063;-81
2024/01/05 10:38:08;;;;;;;47.60;21.67;;;;;;;;;;10100703;29;20175;-82
2024/01/05 10:43:12;;;;;;;36.00;16.60;;;;;;;;;;10130126;29;20036;-81
2024/01/05 10:48:13;;;;;;;26.43;15.73;;;;;;;;;;10120887;29;20498;-81
2024/01/05 10:53:15;;;;;;;52.43;26.63;;;;;;;;;;10114267;29;20155;-80
2024/01/05 10:58:16;;;;;;;39.77;21.13;;;;;;;;;;10125441;29;20025;-80
2024/01/05 11:03:19;;;;;;;32.93;18.27;;;;;;;;;;10120096;29;20033;-80
2024/01/05 11:08:23;;;;;;;31.10;16.40;;;;;;;;;;10143742;29;20131;-80
2024/01/05 11:13:44;;;;;;;29.30;14.97;;;;;;;;;;10126610;29;20056;-82
2024/01/05 11:18:57;;;;;;;24.33;12.97;;;;;;;;;;10105131;29;20484;-79
2024/01/05 11:23:58;;;;;;;43.37;20.20;;;;;;;;;;10120496;29;20064;-80
2024/01/05 11:28:59;;;;;;;33.20;14.43;;;;;;;;;;10120319;29;20986;-79
2024/01/05 11:34:00;;;;;;;58.80;36.33;;;;;;;;;;10125099;29;20060;-80
2024/01/05 11:39:02;;;;;;;124.20;83.13;;;;;;;;;;10126237;29;20060;-79
2024/01/05 11:44:04;;;;;;;43.90;24.97;;;;;;;;;;10113351;29;20024;-80
2024/01/05 11:49:06;;;;;;;32.07;15.63;;;;;;;;;;10125624;29;20044;-79
2024/01/05 11:54:09;;;;;;;27.07;13.40;;;;;;;;;;10125973;29;20066;-82
2024/01/05 11:59:13;;;;;;;30.03;13.50;;;;;;;;;;10119810;29;20041;-81
2024/01/05 12:04:14;;;;;;;34.97;16.33;;;;;;;;;;10126219;29;20099;-79
2024/01/05 12:09:15;;;;;;;31.87;15.43;;;;;;;;;;10151642;29;20115;-81
2024/01/05 12:14:37;;;;;;;34.93;14.97;;;;;;;;;;10146324;29;20044;-80
2024/01/05 12:19:39;;;;;;;33.63;18.97;;;;;;;;;;10093978;29;20052;-80
2024/01/05 12:24:40;;;;;;;29.10;13.53;;;;;;;;;;10113157;29;20047;-82
2024/01/05 12:29:42;;;;;;;33.43;15.83;;;;;;;;;;10124810;29;20484;-79
2024/01/05 12:34:43;;;;;;;38.37;17.47;;;;;;;;;;10099968;29;20119;-78
2024/01/05 12:39:44;;;;;;;31.07;14.13;;;;;;;;;;10097121;29;20060;-80
2024/01/05 12:44:45;;;;;;;31.43;16.13;;;;;;;;;;10104543;29;20040;-80
2024/01/05 12:49:53;;;;;;;30.67;14.40;;;;;;;;;;10112811;29;20041;-80
2024/01/05 12:54:54;;;;;;;31.77;14.87;;;;;;;;;;10094712;29;20060;-81
2024/01/05 13:00:05;;;;;;;31.07;15.60;;;;;;;;;;10105504;29;20037;-81
2024/01/05 13:05:24;;;;;;;41.37;23.37;;;;;;;;;;10124675;29;20036;-79
2024/01/05 13:10:29;;;;;;;48.43;31.23;;;;;;;;;;10100747;29;20048;-82
2024/01/05 13:15:30;;;;;;;30.13;14.13;;;;;;;;;;10109444;29;20902;-78
2024/01/05 13:20:31;;;;;;;33.67;18.30;;;;;;;;;;10120444;29;20040;-79
2024/01/05 13:25:32;;;;;;;33.73;19.00;;;;;;;;;;10128691;29;20048;-81
2024/01/05 13:30:33;;;;;;;34.20;18.03;;;;;;;;;;10130196;29;20039;-82
2024/01/05 13:35:36;;;;;;;52.90;24.77;;;;;;;;;;10126775;29;20045;-79
2024/01/05 13:40:40;;;;;;;42.20;21.27;;;;;;;;;;10129381;29;20037;-81
2024/01/05 13:45:41;;;;;;;51.77;21.90;;;;;;;;;;10122987;29;20036;-80
2024/01/05 13:50:42;;;;;;;40.00;17.37;;;;;;;;;;10112272;29;20033;-78
2024/01/05 13:55:43;;;;;;;36.20;17.10;;;;;;;;;;10126833;29;20563;-78
2024/01/05 14:00:47;;;;;;;41.93;18.27;;;;;;;;;;10120190;29;20040;-79
2024/01/05 14:05:48;;;;;;;44.77;20.13;;;;;;;;;;10121366;29;20040;-81
2024/01/05 14:10:49;;;;;;;61.07;27.17;;;;;;;;;;10119555;29;20079;-81
2024/01/05 14:15:50;;;;;;;77.77;33.93;;;;;;;;;;10109714;29;20067;-80
2024/01/05 14:20:51;;;;;;;61.30;26.70;;;;;;;;;;10124694;29;20365;-81
2024/01/05 14:25:52;;;;;;;52.70;23.13;;;;;;;;;;10127816;29;20024;-79
2024/01/05 14:30:53;;;;;;;44.73;20.33;;;;;;;;;;10121976;29;20133;-80
2024/01/05 14:36:04;;;;;;;48.83;22.60;;;;;;;;;;10157618;29;20215;-78
2024/01/05 14:41:05;;;;;;;51.20;23.03;;;;;;;;;;10159350;29;20441;-80
2024/01/05 14:46:09;;;;;;;50.43;22.00;;;;;;;;;;10161344;29;20116;-79
2024/01/05 14:51:10;;;;;;;56.00;23.33;;;;;;;;;;10143591;29;20047;-78
2024/01/05 14:56:14;;;;;;;54.37;24.47;;;;;;;;;;10151953;29;20136;-79
2024/01/05 15:01:15;;;;;;;52.37;22.73;;;;;;;;;;10165541;29;20044;-79
2024/01/05 15:06:16;;;;;;;92.27;39.33;;;;;;;;;;10165512;29;20035;-79
2024/01/05 15:11:18;;;;;;;79.70;34.50;;;;;;;;;;10152539;29;20030;-79
2024/01/05 15:16:19;;;;;;;62.53;28.20;;;;;;;;;;10146826;29;20604;-80
2024/01/05 15:21:27;;;;;;;64.17;27.83;;;;;;;;;;10157834;29;20036;-81
2024/01/05 15:26:28;;;;;;;74.53;30.43;;;;;;;;;;10164095;29;20032;-80
2024/01/05 15:31:29;;;;;;;63.47;28.97;;;;;;;;;;10164891;29;20377;-79
2024/01/05 15:36:30;;;;;;;62.33;28.40;;;;;;;;;;10165308;29;20079;-80
2024/01/05 15:41:31;;;;;;;55.07;26.07;;;;;;;;;;10146132;29;20059;-79
2024/01/05 15:46:33;;;;;;;57.53;28.57;;;;;;;;;;10124009;29;20590;-80
2024/01/05 15:51:36;;;;;;;68.03;31.80;;;;;;;;;;10136150;29;20091;-80
2024/01/05 15:56:37;;;;;;;73.27;31.97;;;;;;;;;;10116269;29;20107;-81
2024/01/05 16:01:38;;;;;;;76.60;34.23;;;;;;;;;;10148286;29;20039;-80
2024/01/05 16:06:39;;;;;;;76.60;34.00;;;;;;;;;;10160442;29;20029;-81
2024/01/05 16:11:41;;;;;;;82.90;39.17;;;;;;;;;;10119883;29;20569;-81
2024/01/05 16:16:42;;;;;;;75.23;34.73;;;;;;;;;;10118491;29;20052;-82
2024/01/05 16:21:43;;;;;;;74.73;33.53;;;;;;;;;;10149398;29;20123;-81
2024/01/05 16:26:46;;;;;;;80.50;35.20;;;;;;;;;;10169753;29;20457;-79
2024/01/05 16:31:47;;;;;;;89.10;39.20;;;;;;;;;;10169985;29;20040;-79
2024/01/05 16:36:54;;;;;;;91.03;37.53;;;;;;;;;;10152363;29;20050;-82
2024/01/05 16:41:55;;;;;;;91.00;41.23;;;;;;;;;;10162121;29;20082;-80
2024/01/05 16:46:56;;;;;;;113.47;48.87;;;;;;;;;;10165273;29;20039;-79
2024/01/05 16:51:57;;;;;;;121.40;54.40;;;;;;;;;;10163812;29;20031;-82
2024/01/05 16:57:00;;;;;;;167.50;75.00;;;;;;;;;;10169866;29;20044;-79
2024/01/05 17:02:01;;;;;;;156.63;71.87;;;;;;;;;;10157881;29;20028;-79
2024/01/05 17:07:03;;;;;;;144.07;66.67;;;;;;;;;;10169254;29;20543;-79
2024/01/05 17:12:04;;;;;;;131.97;56.63;;;;;;;;;;10148131;29;20039;-80
2024/01/05 17:17:05;;;;;;;137.20;58.50;;;;;;;;;;10155234;29;20143;-80
2024/01/05 17:22:06;;;;;;;147.33;57.70;;;;;;;;;;10155355;29;20088;-81
2024/01/05 17:27:15;;;;;;;138.17;51.93;;;;;;;;;;10140081;29;20036;-80
2024/01/05 17:32:16;;;;;;;128.23;49.70;;;;;;;;;;10156335;29;20045;-80
2024/01/05 17:37:17;;;;;;;133.77;49.67;;;;;;;;;;10127851;29;20051;-81
2024/01/05 17:42:19;;;;;;;127.73;47.00;;;;;;;;;;10119676;29;20033;-79
2024/01/05 17:47:21;;;;;;;96.87;39.07;;;;;;;;;;10128248;29;20048;-80
2024/01/05 17:52:22;;;;;;;111.23;43.47;;;;;;;;;;10106638;29;20431;-80
2024/01/05 17:57:23;;;;;;;98.70;38.07;;;;;;;;;;10150935;29;20481;-80
2024/01/05 18:02:24;;;;;;;88.93;35.90;;;;;;;;;;10168687;29;20024;-80
2024/01/05 18:07:25;;;;;;;81.30;33.33;;;;;;;;;;10168367;29;20448;-79
2024/01/05 18:12:27;;;;;;;86.90;35.70;;;;;;;;;;10152225;29;20103;-82
2024/01/05 18:17:28;;;;;;;94.90;37.00;;;;;;;;;;10167408;29;20060;-79
2024/01/05 18:22:29;;;;;;;74.97;33.37;;;;;;;;;;10133529;29;20044;-78
2024/01/05 18:27:30;;;;;;;113.27;47.03;;;;;;;;;;10146121;29;20043;-80
2024/01/05 18:32:31;;;;;;;94.33;41.10;;;;;;;;;;10133747;29;20067;-79
2024/01/05 18:37:38;;;;;;;107.83;43.70;;;;;;;;;;10143250;29;20044;-81
2024/01/05 18:42:39;;;;;;;89.43;38.10;;;;;;;;;;10127706;29;20040;-79
2024/01/05 18:47:40;;;;;;;83.60;36.77;;;;;;;;;;10126676;29;20702;-82
2024/01/05 18:52:41;;;;;;;70.20;32.83;;;;;;;;;;10120301;29;20028;-80
2024/01/05 18:57:43;;;;;;;87.23;38.13;;;;;;;;;;10123145;29;20041;-81
2024/01/05 19:02:44;;;;;;;76.07;35.43;;;;;;;;;;10116877;29;20032;-82
2024/01/05 19:07:45;;;;;;;70.47;32.50;;;;;;;;;;10122779;29;20509;-81
2024/01/05 19:12:46;;;;;;;107.50;47.63;;;;;;;;;;10116148;29;20520;-81
2024/01/05 19:17:47;;;;;;;76.23;35.03;;;;;;;;;;10116155;29;20121;-82
2024/01/05 19:22:48;;;;;;;83.93;38.07;;;;;;;;;;10127459;29;20485;-81
2024/01/05 19:27:50;;;;;;;102.30;44.50;;;;;;;;;;10112733;29;20112;-80
2024/01/05 19:32:51;;;;;;;93.17;40.93;;;;;;;;;;10114923;29;20127;-79
2024/01/05 19:37:52;;;;;;;75.30;35.10;;;;;;;;;;10118976;29;20028;-78
2024/01/05 19:42:59;;;;;;;74.90;32.27;;;;;;;;;;10116942;29;20052;-80
2024/01/05 19:48:01;;;;;;;94.23;38.80;;;;;;;;;;10115578;29;20039;-79
2024/01/05 19:53:03;;;;;;;82.80;37.03;;;;;;;;;;10114308;29;20045;-78
2024/01/05 19:58:04;;;;;;;65.63;30.07;;;;;;;;;;10100981;29;20032;-81
2024/01/05 20:03:05;;;;;;;98.93;43.13;;;;;;;;;;10119895;29;20032;-80
2024/01/05 20:08:06;;;;;;;94.43;41.73;;;;;;;;;;10116409;29;20092;-79
2024/01/05 20:13:08;;;;;;;122.73;50.60;;;;;;;;;;10132403;29;20044;-81
2024/01/05 20:18:09;;;;;;;124.10;51.47;;;;;;;;;;10113529;29;20059;-79
2024/01/05 20:23:11;;;;;;;155.00;66.63;;;;;;;;;;10108830;29;20068;-80
2024/01/05 20:28:12;;;;;;;165.73;65.27;;;;;;;;;;10133938;29;20040;-80
2024/01/05 20:33:20;;;;;;;206.23;81.07;;;;;;;;;;10141497;29;20396;-79
2024/01/05 20:38:21;;;;;;;227.47;90.30;;;;;;;;;;10116113;29;20532;-81
2024/01/05 20:43:22;;;;;;;208.97;92.43;;;;;;;;;;10118574;29;20056;-79
2024/01/05 20:48:23;;;;;;;196.23;77.07;;;;;;;;;;10104365;29;20119;-79
2024/01/05 20:53:25;;;;;;;171.97;51.53;;;;;;;;;;10121507;29;20055;-83
2024/01/05 20:58:26;;;;;;;157.37;50.00;;;;;;;;;;10114267;29;20037;-80
2024/01/05 21:03:27;;;;;;;168.13;51.77;;;;;;;;;;10115663;29;20033;-78
2024/01/05 21:08:28;;;;;;;131.27;48.53;;;;;;;;;;10122400;29;20156;-80
2024/01/05 21:13:29;;;;;;;123.20;48.93;;;;;;;;;;10115047;29;20043;-79
2024/01/05 21:18:31;;;;;;;165.07;51.53;;;;;;;;;;10125138;29;20428;-80
2024/01/05 21:23:32;;;;;;;128.70;45.90;;;;;;;;;;10121403;29;20045;-80
2024/01/05 21:28:33;;;;;;;237.63;62.07;;;;;;;;;;10120650;29;20040;-80
2024/01/05 21:33:35;;;;;;;103.17;41.43;;;;;;;;;;10114373;29;20124;-80
2024/01/05 21:38:36;;;;;;;97.63;42.07;;;;;;;;;;10140975;29;20041;-83
2024/01/05 21:43:37;;;;;;;119.27;47.37;;;;;;;;;;10154107;29;20036;-79
2024/01/05 21:48:38;;;;;;;139.00;48.67;;;;;;;;;;10129591;29;20041;-80
2024/01/05 21:53:39;;;;;;;207.20;50.73;;;;;;;;;;10153124;29;20083;-80
2024/01/05 21:58:40;;;;;;;177.10;47.17;;;;;;;;;;10161147;29;20365;-80
2024/01/05 22:03:41;;;;;;;193.50;47.77;;;;;;;;;;10152180;29;20045;-80
2024/01/05 22:08:42;;;;;;;134.17;39.97;;;;;;;;;;10144246;29;20489;-79
2024/01/05 22:13:43;;;;;;;180.43;54.27;;;;;;;;;;10120222;29;20128;-83
2024/01/05 22:18:45;;;;;;;157.43;45.97;;;;;;;;;;10135995;29;20492;-80
2024/01/05 22:23:46;;;;;;;250.07;59.97;;;;;;;;;;10151317;29;20143;-79
2024/01/05 22:28:48;;;;;;;178.03;46.30;;;;;;;;;;10121819;29;20051;-80
2024/01/05 22:33:49;;;;;;;178.00;47.63;;;;;;;;;;10124687;29;20036;-79
2024/01/05 22:38:50;;;;;;;277.40;58.73;;;;;;;;;;10146935;29;20055;-79
2024/01/05 22:43:52;;;;;;;224.63;58.40;;;;;;;;;;10150394;29;20208;-79
2024/01/05 22:48:53;;;;;;;125.23;41.70;;;;;;;;;;10145016;29;20044;-80
2024/01/05 22:53:54;;;;;;;143.83;41.77;;;;;;;;;;10145848;29;20043;-80
2024/01/05 22:58:55;;;;;;;133.53;40.23;;;;;;;;;;10133191;29;20036;-79
2024/01/05 23:03:56;;;;;;;195.83;49.40;;;;;;;;;;10111179;29;20068;-80
2024/01/05 23:08:58;;;;;;;226.97;52.67;;;;;;;;;;10122911;29;20037;-84
2024/01/05 23:13:59;;;;;;;156.20;43.27;;;;;;;;;;10158992;29;20043;-79
2024/01/05 23:19:00;;;;;;;279.43;54.03;;;;;;;;;;10126760;29;20138;-80
2024/01/05 23:24:01;;;;;;;195.67;48.87;;;;;;;;;;10143427;29;20480;-80
2024/01/05 23:29:03;;;;;;;206.40;45.40;;;;;;;;;;10137028;29;20032;-80
2024/01/05 23:34:04;;;;;;;124.67;41.20;;;;;;;;;;10114236;29;20118;-80
2024/01/05 23:39:05;;;;;;;164.80;45.77;;;;;;;;;;10118514;29;20789;-82
2024/01/05 23:44:06;;;;;;;229.27;51.90;;;;;;;;;;10143473;29;20033;-80
2024/01/05 23:49:08;;;;;;;245.23;55.10;;;;;;;;;;10132371;29;20024;-83
2024/01/05 23:54:09;;;;;;;202.63;50.90;;;;;;;;;;10139610;29;20453;-82
2024/01/05 23:59:10;;;;;;;270.87;57.63;;;;;;;;;;10130348;29;20048;-80
